sensor_id;sensor_type;location;lat;lon;timestamp;P1;durP1;ratioP1;P2;durP2;ratioP2
21862;SDS011;11096;51.338;12.524;2023-05-07T00:01:47;10.95;;;6.95;;
21862;SDS011;11096;51.338;12.524;2023-05-07T00:04:13;10.15;;;7.25;;
21862;SDS011;11096;51.338;12.524;2023-05-07T00:06:38;12.18;;;7.25;;
21862;SDS011;11096;51.338;12.524;2023-05-07T00:09:04;11.95;;;7.47;;
21862;SDS011;11096;51.338;12.524;2023-05-07T00:11:30;13.82;;;7.53;;
21862;SDS011;11096;51.338;12.524;2023-05-07T00:13:56;10.88;;;7.40;;
21862;SDS011;11096;51.338;12.524;2023-05-07T00:16:22;10.05;;;7.32;;
21862;SDS011;11096;51.338;12.524;2023-05-07T00:18:47;11.35;;;7.70;;
21862;SDS011;11096;51.338;12.524;2023-05-07T00:21:13;9.07;;;7.57;;
21862;SDS011;11096;51.338;12.524;2023-05-07T00:23:38;11.10;;;7.70;;
21862;SDS011;11096;51.338;12.524;2023-05-07T00:26:04;10.90;;;7.82;;
21862;SDS011;11096;51.338;12.524;2023-05-07T00:28:29;9.75;;;7.70;;
21862;SDS011;11096;51.338;12.524;2023-05-07T00:30:55;12.52;;;7.20;;
21862;SDS011;11096;51.338;12.524;2023-05-07T00:33:21;12.48;;;7.68;;
21862;SDS011;11096;51.338;12.524;2023-05-07T00:35:47;11.35;;;7.60;;
21862;SDS011;11096;51.338;12.524;2023-05-07T00:38:13;11.13;;;8.10;;
21862;SDS011;11096;51.338;12.524;2023-05-07T00:40:38;10.20;;;7.75;;
21862;SDS011;11096;51.338;12.524;2023-05-07T00:43:04;11.43;;;8.13;;
21862;SDS011;11096;51.338;12.524;2023-05-07T00:45:29;12.82;;;8.48;;
21862;SDS011;11096;51.338;12.524;2023-05-07T00:47:55;11.57;;;8.40;;
21862;SDS011;11096;51.338;12.524;2023-05-07T00:50:22;11.93;;;8.27;;
21862;SDS011;11096;51.338;12.524;2023-05-07T00:52:48;12.95;;;9.20;;
21862;SDS011;11096;51.338;12.524;2023-05-07T00:55:13;14.65;;;9.30;;
21862;SDS011;11096;51.338;12.524;2023-05-07T00:57:40;19.27;;;9.48;;
21862;SDS011;11096;51.338;12.524;2023-05-07T01:00:07;15.40;;;9.85;;
21862;SDS011;11096;51.338;12.524;2023-05-07T01:02:34;12.93;;;8.82;;
21862;SDS011;11096;51.338;12.524;2023-05-07T01:05:03;14.88;;;9.15;;
21862;SDS011;11096;51.338;12.524;2023-05-07T01:07:31;13.75;;;9.45;;
21862;SDS011;11096;51.338;12.524;2023-05-07T01:09:57;14.60;;;9.85;;
21862;SDS011;11096;51.338;12.524;2023-05-07T01:12:23;14.20;;;9.32;;
21862;SDS011;11096;51.338;12.524;2023-05-07T01:14:49;12.93;;;10.10;;
21862;SDS011;11096;51.338;12.524;2023-05-07T01:17:15;13.85;;;9.90;;
21862;SDS011;11096;51.338;12.524;2023-05-07T01:19:41;16.60;;;10.85;;
21862;SDS011;11096;51.338;12.524;2023-05-07T01:22:08;16.55;;;11.18;;
21862;SDS011;11096;51.338;12.524;2023-05-07T01:24:36;15.65;;;10.35;;
21862;SDS011;11096;51.338;12.524;2023-05-07T01:27:02;19.23;;;10.70;;
21862;SDS011;11096;51.338;12.524;2023-05-07T01:29:27;17.80;;;11.80;;
21862;SDS011;11096;51.338;12.524;2023-05-07T01:31:54;22.40;;;12.25;;
21862;SDS011;11096;51.338;12.524;2023-05-07T01:34:22;17.92;;;11.75;;
21862;SDS011;11096;51.338;12.524;2023-05-07T01:36:50;17.35;;;11.68;;
21862;SDS011;11096;51.338;12.524;2023-05-07T01:39:17;20.52;;;12.35;;
21862;SDS011;11096;51.338;12.524;2023-05-07T01:41:43;18.33;;;12.63;;
21862;SDS011;11096;51.338;12.524;2023-05-07T01:44:08;17.55;;;12.05;;
21862;SDS011;11096;51.338;12.524;2023-05-07T01:46:37;19.38;;;13.25;;
21862;SDS011;11096;51.338;12.524;2023-05-07T01:49:02;23.00;;;12.73;;
21862;SDS011;11096;51.338;12.524;2023-05-07T01:51:28;18.92;;;12.23;;
21862;SDS011;11096;51.338;12.524;2023-05-07T01:53:54;19.48;;;12.95;;
21862;SDS011;11096;51.338;12.524;2023-05-07T01:56:20;23.02;;;14.07;;
21862;SDS011;11096;51.338;12.524;2023-05-07T01:58:47;22.80;;;14.73;;
21862;SDS011;11096;51.338;12.524;2023-05-07T02:01:13;23.95;;;14.77;;
21862;SDS011;11096;51.338;12.524;2023-05-07T02:03:39;22.65;;;14.65;;
21862;SDS011;11096;51.338;12.524;2023-05-07T02:06:05;23.48;;;14.98;;
21862;SDS011;11096;51.338;12.524;2023-05-07T02:08:30;21.65;;;15.18;;
21862;SDS011;11096;51.338;12.524;2023-05-07T02:10:56;24.38;;;15.82;;
21862;SDS011;11096;51.338;12.524;2023-05-07T02:13:21;21.10;;;14.15;;
21862;SDS011;11096;51.338;12.524;2023-05-07T02:15:49;24.65;;;15.63;;
21862;SDS011;11096;51.338;12.524;2023-05-07T02:18:16;24.42;;;15.05;;
21862;SDS011;11096;51.338;12.524;2023-05-07T02:20:42;20.33;;;14.57;;
21862;SDS011;11096;51.338;12.524;2023-05-07T02:23:08;22.80;;;15.57;;
21862;SDS011;11096;51.338;12.524;2023-05-07T02:25:33;23.52;;;15.27;;
21862;SDS011;11096;51.338;12.524;2023-05-07T02:27:59;21.10;;;14.00;;
21862;SDS011;11096;51.338;12.524;2023-05-07T02:30:24;22.83;;;14.43;;
21862;SDS011;11096;51.338;12.524;2023-05-07T02:32:50;19.75;;;13.98;;
21862;SDS011;11096;51.338;12.524;2023-05-07T02:35:16;20.60;;;14.13;;
21862;SDS011;11096;51.338;12.524;2023-05-07T02:37:42;21.83;;;14.55;;
21862;SDS011;11096;51.338;12.524;2023-05-07T02:40:07;19.50;;;13.85;;
21862;SDS011;11096;51.338;12.524;2023-05-07T02:42:33;21.42;;;14.05;;
21862;SDS011;11096;51.338;12.524;2023-05-07T02:44:59;23.85;;;14.63;;
21862;SDS011;11096;51.338;12.524;2023-05-07T02:47:24;19.27;;;13.10;;
21862;SDS011;11096;51.338;12.524;2023-05-07T02:49:53;17.77;;;12.55;;
21862;SDS011;11096;51.338;12.524;2023-05-07T02:52:19;17.77;;;13.27;;
21862;SDS011;11096;51.338;12.524;2023-05-07T02:54:44;19.55;;;13.55;;
21862;SDS011;11096;51.338;12.524;2023-05-07T02:57:10;19.58;;;13.27;;
21862;SDS011;11096;51.338;12.524;2023-05-07T02:59:35;19.58;;;12.23;;
21862;SDS011;11096;51.338;12.524;2023-05-07T03:02:01;21.08;;;13.88;;
21862;SDS011;11096;51.338;12.524;2023-05-07T03:04:26;17.25;;;12.52;;
21862;SDS011;11096;51.338;12.524;2023-05-07T03:06:52;17.92;;;12.68;;
21862;SDS011;11096;51.338;12.524;2023-05-07T03:09:17;17.02;;;12.70;;
21862;SDS011;11096;51.338;12.524;2023-05-07T03:11:42;16.75;;;12.40;;
21862;SDS011;11096;51.338;12.524;2023-05-07T03:14:08;20.08;;;12.65;;
21862;SDS011;11096;51.338;12.524;2023-05-07T03:16:34;16.38;;;11.88;;
21862;SDS011;11096;51.338;12.524;2023-05-07T03:18:59;17.95;;;12.07;;
21862;SDS011;11096;51.338;12.524;2023-05-07T03:21:25;20.98;;;12.98;;
21862;SDS011;11096;51.338;12.524;2023-05-07T03:23:51;19.33;;;12.90;;
21862;SDS011;11096;51.338;12.524;2023-05-07T03:26:16;19.75;;;13.07;;
21862;SDS011;11096;51.338;12.524;2023-05-07T03:28:42;19.38;;;12.52;;
21862;SDS011;11096;51.338;12.524;2023-05-07T03:31:07;17.85;;;12.50;;
21862;SDS011;11096;51.338;12.524;2023-05-07T03:33:33;18.55;;;11.75;;
21862;SDS011;11096;51.338;12.524;2023-05-07T03:35:59;19.35;;;12.15;;
21862;SDS011;11096;51.338;12.524;2023-05-07T03:38:25;18.42;;;12.68;;
21862;SDS011;11096;51.338;12.524;2023-05-07T03:40:51;18.75;;;12.38;;
21862;SDS011;11096;51.338;12.524;2023-05-07T03:43:16;20.10;;;13.43;;
21862;SDS011;11096;51.338;12.524;2023-05-07T03:45:42;17.42;;;12.70;;
21862;SDS011;11096;51.338;12.524;2023-05-07T03:48:07;17.48;;;12.02;;
21862;SDS011;11096;51.338;12.524;2023-05-07T03:50:32;19.38;;;12.57;;
21862;SDS011;11096;51.338;12.524;2023-05-07T03:52:58;18.75;;;12.23;;
21862;SDS011;11096;51.338;12.524;2023-05-07T03:55:23;19.77;;;12.55;;
21862;SDS011;11096;51.338;12.524;2023-05-07T03:57:49;18.05;;;12.75;;
21862;SDS011;11096;51.338;12.524;2023-05-07T04:00:14;18.17;;;12.65;;
21862;SDS011;11096;51.338;12.524;2023-05-07T04:02:40;18.27;;;12.50;;
21862;SDS011;11096;51.338;12.524;2023-05-07T04:05:05;18.38;;;12.23;;
21862;SDS011;11096;51.338;12.524;2023-05-07T04:07:31;19.58;;;11.85;;
21862;SDS011;11096;51.338;12.524;2023-05-07T04:09:56;19.95;;;12.05;;
21862;SDS011;11096;51.338;12.524;2023-05-07T04:12:22;17.48;;;12.20;;
21862;SDS011;11096;51.338;12.524;2023-05-07T04:14:47;21.05;;;13.27;;
21862;SDS011;11096;51.338;12.524;2023-05-07T04:17:12;21.60;;;12.95;;
21862;SDS011;11096;51.338;12.524;2023-05-07T04:19:38;16.48;;;11.82;;
21862;SDS011;11096;51.338;12.524;2023-05-07T04:22:03;19.27;;;12.63;;
21862;SDS011;11096;51.338;12.524;2023-05-07T04:24:31;20.10;;;13.25;;
21862;SDS011;11096;51.338;12.524;2023-05-07T04:26:58;18.73;;;12.40;;
21862;SDS011;11096;51.338;12.524;2023-05-07T04:29:23;17.80;;;11.85;;
21862;SDS011;11096;51.338;12.524;2023-05-07T04:31:49;18.05;;;12.00;;
21862;SDS011;11096;51.338;12.524;2023-05-07T04:34:14;17.88;;;11.98;;
21862;SDS011;11096;51.338;12.524;2023-05-07T04:36:40;19.95;;;12.52;;
21862;SDS011;11096;51.338;12.524;2023-05-07T04:39:07;17.48;;;11.65;;
21862;SDS011;11096;51.338;12.524;2023-05-07T04:41:33;19.40;;;11.85;;
21862;SDS011;11096;51.338;12.524;2023-05-07T04:43:58;14.93;;;11.07;;
21862;SDS011;11096;51.338;12.524;2023-05-07T04:46:24;15.70;;;10.70;;
21862;SDS011;11096;51.338;12.524;2023-05-07T04:48:50;14.32;;;10.23;;
21862;SDS011;11096;51.338;12.524;2023-05-07T04:51:15;16.73;;;10.15;;
21862;SDS011;11096;51.338;12.524;2023-05-07T04:53:41;15.55;;;10.23;;
21862;SDS011;11096;51.338;12.524;2023-05-07T04:56:08;16.27;;;10.15;;
21862;SDS011;11096;51.338;12.524;2023-05-07T04:58:33;14.52;;;10.23;;
21862;SDS011;11096;51.338;12.524;2023-05-07T05:00:59;16.58;;;9.10;;
21862;SDS011;11096;51.338;12.524;2023-05-07T05:03:25;16.45;;;10.02;;
21862;SDS011;11096;51.338;12.524;2023-05-07T05:05:50;11.80;;;8.85;;
21862;SDS011;11096;51.338;12.524;2023-05-07T05:08:17;13.27;;;9.10;;
21862;SDS011;11096;51.338;12.524;2023-05-07T05:10:42;12.65;;;9.13;;
21862;SDS011;11096;51.338;12.524;2023-05-07T05:13:08;13.05;;;8.57;;
21862;SDS011;11096;51.338;12.524;2023-05-07T05:15:34;15.73;;;8.80;;
21862;SDS011;11096;51.338;12.524;2023-05-07T05:18:00;13.70;;;8.63;;
21862;SDS011;11096;51.338;12.524;2023-05-07T05:20:26;13.52;;;8.18;;
21862;SDS011;11096;51.338;12.524;2023-05-07T05:22:51;12.48;;;8.95;;
21862;SDS011;11096;51.338;12.524;2023-05-07T05:25:17;11.73;;;8.10;;
21862;SDS011;11096;51.338;12.524;2023-05-07T05:27:42;12.13;;;8.02;;
21862;SDS011;11096;51.338;12.524;2023-05-07T05:30:08;11.57;;;7.90;;
21862;SDS011;11096;51.338;12.524;2023-05-07T05:32:33;11.68;;;8.27;;
21862;SDS011;11096;51.338;12.524;2023-05-07T05:34:59;10.68;;;8.43;;
21862;SDS011;11096;51.338;12.524;2023-05-07T05:37:24;13.63;;;9.32;;
21862;SDS011;11096;51.338;12.524;2023-05-07T05:39:50;12.73;;;8.45;;
21862;SDS011;11096;51.338;12.524;2023-05-07T05:42:15;14.52;;;9.70;;
21862;SDS011;11096;51.338;12.524;2023-05-07T05:44:41;13.60;;;9.45;;
21862;SDS011;11096;51.338;12.524;2023-05-07T05:47:06;17.38;;;10.77;;
21862;SDS011;11096;51.338;12.524;2023-05-07T05:49:32;13.93;;;9.52;;
21862;SDS011;11096;51.338;12.524;2023-05-07T05:51:57;15.20;;;10.20;;
21862;SDS011;11096;51.338;12.524;2023-05-07T05:54:22;15.35;;;10.05;;
21862;SDS011;11096;51.338;12.524;2023-05-07T05:56:48;16.08;;;9.55;;
21862;SDS011;11096;51.338;12.524;2023-05-07T05:59:14;17.25;;;10.20;;
21862;SDS011;11096;51.338;12.524;2023-05-07T06:01:39;14.45;;;10.25;;
21862;SDS011;11096;51.338;12.524;2023-05-07T06:04:05;15.63;;;11.05;;
21862;SDS011;11096;51.338;12.524;2023-05-07T06:06:31;17.45;;;11.23;;
21862;SDS011;11096;51.338;12.524;2023-05-07T06:08:56;17.92;;;11.00;;
21862;SDS011;11096;51.338;12.524;2023-05-07T06:11:22;15.38;;;10.93;;
21862;SDS011;11096;51.338;12.524;2023-05-07T06:13:47;16.48;;;10.65;;
21862;SDS011;11096;51.338;12.524;2023-05-07T06:16:13;16.15;;;10.73;;
21862;SDS011;11096;51.338;12.524;2023-05-07T06:18:40;16.33;;;10.43;;
21862;SDS011;11096;51.338;12.524;2023-05-07T06:21:05;13.40;;;9.68;;
21862;SDS011;11096;51.338;12.524;2023-05-07T06:23:31;12.85;;;8.95;;
21862;SDS011;11096;51.338;12.524;2023-05-07T06:25:56;12.57;;;9.40;;
21862;SDS011;11096;51.338;12.524;2023-05-07T06:28:22;12.45;;;9.35;;
21862;SDS011;11096;51.338;12.524;2023-05-07T06:30:47;15.70;;;9.13;;
21862;SDS011;11096;51.338;12.524;2023-05-07T06:33:15;12.65;;;8.73;;
21862;SDS011;11096;51.338;12.524;2023-05-07T06:35:40;11.50;;;8.13;;
21862;SDS011;11096;51.338;12.524;2023-05-07T06:38:06;12.05;;;8.50;;
21862;SDS011;11096;51.338;12.524;2023-05-07T06:40:31;13.32;;;8.23;;
21862;SDS011;11096;51.338;12.524;2023-05-07T06:42:56;13.23;;;9.13;;
21862;SDS011;11096;51.338;12.524;2023-05-07T06:45:22;11.10;;;8.27;;
21862;SDS011;11096;51.338;12.524;2023-05-07T06:47:47;10.65;;;8.00;;
21862;SDS011;11096;51.338;12.524;2023-05-07T06:50:13;11.40;;;8.40;;
21862;SDS011;11096;51.338;12.524;2023-05-07T06:52:38;13.55;;;8.18;;
21862;SDS011;11096;51.338;12.524;2023-05-07T06:55:04;10.70;;;7.53;;
21862;SDS011;11096;51.338;12.524;2023-05-07T06:57:30;11.25;;;7.97;;
21862;SDS011;11096;51.338;12.524;2023-05-07T06:59:55;9.65;;;7.07;;
21862;SDS011;11096;51.338;12.524;2023-05-07T07:02:21;12.43;;;6.97;;
21862;SDS011;11096;51.338;12.524;2023-05-07T07:04:46;9.73;;;7.45;;
21862;SDS011;11096;51.338;12.524;2023-05-07T07:07:11;11.75;;;7.25;;
21862;SDS011;11096;51.338;12.524;2023-05-07T07:09:37;11.23;;;7.63;;
21862;SDS011;11096;51.338;12.524;2023-05-07T07:12:02;10.10;;;7.75;;
21862;SDS011;11096;51.338;12.524;2023-05-07T07:14:28;10.30;;;7.22;;
21862;SDS011;11096;51.338;12.524;2023-05-07T07:16:53;8.77;;;6.45;;
21862;SDS011;11096;51.338;12.524;2023-05-07T07:19:19;8.63;;;6.53;;
21862;SDS011;11096;51.338;12.524;2023-05-07T07:21:45;8.45;;;6.70;;
21862;SDS011;11096;51.338;12.524;2023-05-07T07:24:10;8.77;;;6.80;;
21862;SDS011;11096;51.338;12.524;2023-05-07T07:26:36;7.75;;;6.30;;
21862;SDS011;11096;51.338;12.524;2023-05-07T07:29:01;8.13;;;6.18;;
21862;SDS011;11096;51.338;12.524;2023-05-07T07:31:26;6.93;;;5.90;;
21862;SDS011;11096;51.338;12.524;2023-05-07T07:33:52;9.88;;;6.07;;
21862;SDS011;11096;51.338;12.524;2023-05-07T07:36:17;6.72;;;5.95;;
21862;SDS011;11096;51.338;12.524;2023-05-07T07:38:43;6.22;;;5.07;;
21862;SDS011;11096;51.338;12.524;2023-05-07T07:41:08;8.38;;;5.90;;
21862;SDS011;11096;51.338;12.524;2023-05-07T07:43:34;7.65;;;5.47;;
21862;SDS011;11096;51.338;12.524;2023-05-07T07:46:00;6.38;;;5.18;;
21862;SDS011;11096;51.338;12.524;2023-05-07T07:48:26;6.60;;;5.20;;
21862;SDS011;11096;51.338;12.524;2023-05-07T07:50:51;6.00;;;4.75;;
21862;SDS011;11096;51.338;12.524;2023-05-07T07:53:17;7.90;;;5.90;;
21862;SDS011;11096;51.338;12.524;2023-05-07T07:55:43;7.78;;;5.32;;
21862;SDS011;11096;51.338;12.524;2023-05-07T07:58:08;6.18;;;5.13;;
21862;SDS011;11096;51.338;12.524;2023-05-07T08:00:34;5.80;;;5.00;;
21862;SDS011;11096;51.338;12.524;2023-05-07T08:02:59;6.50;;;5.30;;
21862;SDS011;11096;51.338;12.524;2023-05-07T08:05:25;6.85;;;5.30;;
21862;SDS011;11096;51.338;12.524;2023-05-07T08:07:50;6.50;;;4.80;;
21862;SDS011;11096;51.338;12.524;2023-05-07T08:10:17;8.27;;;5.25;;
21862;SDS011;11096;51.338;12.524;2023-05-07T08:12:46;4.43;;;4.03;;
21862;SDS011;11096;51.338;12.524;2023-05-07T08:15:13;4.85;;;4.35;;
21862;SDS011;11096;51.338;12.524;2023-05-07T08:17:38;8.77;;;5.38;;
21862;SDS011;11096;51.338;12.524;2023-05-07T08:20:04;6.57;;;5.05;;
21862;SDS011;11096;51.338;12.524;2023-05-07T08:22:30;6.35;;;4.40;;
21862;SDS011;11096;51.338;12.524;2023-05-07T08:24:55;5.30;;;4.65;;
21862;SDS011;11096;51.338;12.524;2023-05-07T08:27:21;6.50;;;5.28;;
21862;SDS011;11096;51.338;12.524;2023-05-07T08:29:46;7.35;;;5.40;;
21862;SDS011;11096;51.338;12.524;2023-05-07T08:32:13;6.78;;;5.00;;
21862;SDS011;11096;51.338;12.524;2023-05-07T08:34:38;6.05;;;5.13;;
21862;SDS011;11096;51.338;12.524;2023-05-07T08:37:04;6.32;;;5.53;;
21862;SDS011;11096;51.338;12.524;2023-05-07T08:39:29;7.68;;;5.88;;
21862;SDS011;11096;51.338;12.524;2023-05-07T08:41:55;7.60;;;5.13;;
21862;SDS011;11096;51.338;12.524;2023-05-07T08:44:22;7.93;;;5.65;;
21862;SDS011;11096;51.338;12.524;2023-05-07T08:46:51;6.15;;;5.18;;
21862;SDS011;11096;51.338;12.524;2023-05-07T08:49:19;7.53;;;5.70;;
21862;SDS011;11096;51.338;12.524;2023-05-07T08:51:45;7.15;;;5.68;;
21862;SDS011;11096;51.338;12.524;2023-05-07T08:54:11;6.55;;;5.40;;
21862;SDS011;11096;51.338;12.524;2023-05-07T08:56:41;7.68;;;5.70;;
21862;SDS011;11096;51.338;12.524;2023-05-07T08:59:06;7.32;;;5.57;;
21862;SDS011;11096;51.338;12.524;2023-05-07T09:01:31;6.32;;;5.43;;
21862;SDS011;11096;51.338;12.524;2023-05-07T09:03:57;7.10;;;5.50;;
21862;SDS011;11096;51.338;12.524;2023-05-07T09:06:23;5.78;;;5.18;;
21862;SDS011;11096;51.338;12.524;2023-05-07T09:08:49;7.18;;;5.32;;
21862;SDS011;11096;51.338;12.524;2023-05-07T09:11:16;7.35;;;5.68;;
21862;SDS011;11096;51.338;12.524;2023-05-07T09:13:42;7.15;;;5.43;;
21862;SDS011;11096;51.338;12.524;2023-05-07T09:16:11;7.22;;;5.15;;
21862;SDS011;11096;51.338;12.524;2023-05-07T09:18:43;6.35;;;5.43;;
21862;SDS011;11096;51.338;12.524;2023-05-07T09:21:10;6.30;;;5.45;;
21862;SDS011;11096;51.338;12.524;2023-05-07T09:23:36;8.48;;;5.07;;
21862;SDS011;11096;51.338;12.524;2023-05-07T09:26:02;6.90;;;5.25;;
21862;SDS011;11096;51.338;12.524;2023-05-07T09:28:27;7.03;;;5.05;;
21862;SDS011;11096;51.338;12.524;2023-05-07T09:30:52;7.93;;;5.18;;
21862;SDS011;11096;51.338;12.524;2023-05-07T09:33:18;6.68;;;5.07;;
21862;SDS011;11096;51.338;12.524;2023-05-07T09:35:43;6.28;;;5.20;;
21862;SDS011;11096;51.338;12.524;2023-05-07T09:38:09;7.80;;;5.45;;
21862;SDS011;11096;51.338;12.524;2023-05-07T09:40:34;7.55;;;5.45;;
21862;SDS011;11096;51.338;12.524;2023-05-07T09:43:09;7.68;;;5.10;;
21862;SDS011;11096;51.338;12.524;2023-05-07T09:45:36;7.43;;;5.25;;
21862;SDS011;11096;51.338;12.524;2023-05-07T09:48:04;7.13;;;4.85;;
21862;SDS011;11096;51.338;12.524;2023-05-07T09:50:36;4.90;;;4.28;;
21862;SDS011;11096;51.338;12.524;2023-05-07T09:53:09;5.78;;;5.18;;
21862;SDS011;11096;51.338;12.524;2023-05-07T09:55:35;7.78;;;4.63;;
21862;SDS011;11096;51.338;12.524;2023-05-07T09:58:01;6.35;;;4.60;;
21862;SDS011;11096;51.338;12.524;2023-05-07T10:00:29;4.63;;;3.83;;
21862;SDS011;11096;51.338;12.524;2023-05-07T10:02:56;5.35;;;4.40;;
21862;SDS011;11096;51.338;12.524;2023-05-07T10:05:23;5.25;;;4.43;;
21862;SDS011;11096;51.338;12.524;2023-05-07T10:07:50;5.63;;;5.03;;
21862;SDS011;11096;51.338;12.524;2023-05-07T10:10:15;5.20;;;4.25;;
21862;SDS011;11096;51.338;12.524;2023-05-07T10:12:42;5.00;;;4.40;;
21862;SDS011;11096;51.338;12.524;2023-05-07T10:15:08;4.95;;;4.40;;
21862;SDS011;11096;51.338;12.524;2023-05-07T10:17:35;5.88;;;4.50;;
21862;SDS011;11096;51.338;12.524;2023-05-07T10:20:02;5.82;;;4.63;;
21862;SDS011;11096;51.338;12.524;2023-05-07T10:22:29;4.65;;;4.10;;
21862;SDS011;11096;51.338;12.524;2023-05-07T10:25:14;4.72;;;4.00;;
21862;SDS011;11096;51.338;12.524;2023-05-07T10:27:43;6.05;;;3.70;;
21862;SDS011;11096;51.338;12.524;2023-05-07T10:33:01;6.15;;;4.82;;
21862;SDS011;11096;51.338;12.524;2023-05-07T10:35:37;5.47;;;4.75;;
21862;SDS011;11096;51.338;12.524;2023-05-07T10:38:06;9.40;;;5.75;;
21862;SDS011;11096;51.338;12.524;2023-05-07T10:40:31;8.75;;;6.18;;
21862;SDS011;11096;51.338;12.524;2023-05-07T10:42:58;7.47;;;6.22;;
21862;SDS011;11096;51.338;12.524;2023-05-07T10:45:26;8.95;;;6.32;;
21862;SDS011;11096;51.338;12.524;2023-05-07T10:50:36;8.52;;;6.28;;
21862;SDS011;11096;51.338;12.524;2023-05-07T10:55:44;7.68;;;5.88;;
21862;SDS011;11096;51.338;12.524;2023-05-07T11:00:46;6.50;;;5.68;;
21862;SDS011;11096;51.338;12.524;2023-05-07T11:03:11;7.53;;;5.85;;
21862;SDS011;11096;51.338;12.524;2023-05-07T11:05:37;7.32;;;5.93;;
21862;SDS011;11096;51.338;12.524;2023-05-07T11:08:04;9.93;;;5.10;;
21862;SDS011;11096;51.338;12.524;2023-05-07T11:10:51;6.28;;;5.10;;
21862;SDS011;11096;51.338;12.524;2023-05-07T11:14:02;8.10;;;4.75;;
21862;SDS011;11096;51.338;12.524;2023-05-07T11:16:24;5.82;;;4.68;;
21862;SDS011;11096;51.338;12.524;2023-05-07T11:18:55;8.13;;;5.70;;
21862;SDS011;11096;51.338;12.524;2023-05-07T11:21:34;6.00;;;4.80;;
21862;SDS011;11096;51.338;12.524;2023-05-07T11:24:05;7.20;;;5.43;;
21862;SDS011;11096;51.338;12.524;2023-05-07T11:29:27;6.82;;;5.13;;
21862;SDS011;11096;51.338;12.524;2023-05-07T11:31:54;6.00;;;4.72;;
21862;SDS011;11096;51.338;12.524;2023-05-07T11:34:23;8.98;;;5.93;;
21862;SDS011;11096;51.338;12.524;2023-05-07T11:36:50;6.40;;;4.85;;
21862;SDS011;11096;51.338;12.524;2023-05-07T11:39:27;7.45;;;5.18;;
21862;SDS011;11096;51.338;12.524;2023-05-07T11:41:54;6.95;;;4.68;;
21862;SDS011;11096;51.338;12.524;2023-05-07T11:44:19;7.57;;;4.72;;
21862;SDS011;11096;51.338;12.524;2023-05-07T11:46:45;7.88;;;5.55;;
21862;SDS011;11096;51.338;12.524;2023-05-07T11:49:10;6.95;;;5.28;;
21862;SDS011;11096;51.338;12.524;2023-05-07T11:51:36;6.93;;;5.10;;
21862;SDS011;11096;51.338;12.524;2023-05-07T11:54:05;7.00;;;5.10;;
21862;SDS011;11096;51.338;12.524;2023-05-07T11:56:34;9.40;;;5.38;;
21862;SDS011;11096;51.338;12.524;2023-05-07T11:59:00;7.75;;;5.38;;
21862;SDS011;11096;51.338;12.524;2023-05-07T12:01:26;8.57;;;6.20;;
21862;SDS011;11096;51.338;12.524;2023-05-07T12:03:51;5.82;;;5.03;;
21862;SDS011;11096;51.338;12.524;2023-05-07T12:06:17;6.88;;;4.97;;
21862;SDS011;11096;51.338;12.524;2023-05-07T12:08:43;5.65;;;4.72;;
21862;SDS011;11096;51.338;12.524;2023-05-07T12:11:12;5.35;;;4.45;;
21862;SDS011;11096;51.338;12.524;2023-05-07T12:13:42;6.15;;;4.97;;
21862;SDS011;11096;51.338;12.524;2023-05-07T12:16:08;6.25;;;5.13;;
21862;SDS011;11096;51.338;12.524;2023-05-07T12:18:34;7.57;;;5.25;;
21862;SDS011;11096;51.338;12.524;2023-05-07T12:21:00;6.45;;;5.00;;
21862;SDS011;11096;51.338;12.524;2023-05-07T12:23:26;6.32;;;5.00;;
21862;SDS011;11096;51.338;12.524;2023-05-07T12:25:52;6.72;;;4.75;;
21862;SDS011;11096;51.338;12.524;2023-05-07T12:28:18;8.35;;;5.30;;
21862;SDS011;11096;51.338;12.524;2023-05-07T12:30:45;6.88;;;4.68;;
21862;SDS011;11096;51.338;12.524;2023-05-07T12:33:12;6.80;;;5.03;;
21862;SDS011;11096;51.338;12.524;2023-05-07T12:35:41;4.78;;;3.85;;
21862;SDS011;11096;51.338;12.524;2023-05-07T12:38:14;6.32;;;4.57;;
21862;SDS011;11096;51.338;12.524;2023-05-07T12:40:43;5.72;;;4.32;;
21862;SDS011;11096;51.338;12.524;2023-05-07T12:43:24;6.32;;;4.75;;
21862;SDS011;11096;51.338;12.524;2023-05-07T12:45:50;7.88;;;4.35;;
21862;SDS011;11096;51.338;12.524;2023-05-07T12:48:17;4.72;;;3.92;;
21862;SDS011;11096;51.338;12.524;2023-05-07T12:50:44;5.75;;;4.30;;
21862;SDS011;11096;51.338;12.524;2023-05-07T12:53:10;5.43;;;4.07;;
21862;SDS011;11096;51.338;12.524;2023-05-07T12:55:44;5.43;;;3.92;;
21862;SDS011;11096;51.338;12.524;2023-05-07T12:58:17;5.75;;;4.25;;
21862;SDS011;11096;51.338;12.524;2023-05-07T13:00:45;6.18;;;4.15;;
21862;SDS011;11096;51.338;12.524;2023-05-07T13:03:20;4.78;;;3.97;;
21862;SDS011;11096;51.338;12.524;2023-05-07T13:05:48;4.68;;;4.18;;
21862;SDS011;11096;51.338;12.524;2023-05-07T13:08:22;5.60;;;4.20;;
21862;SDS011;11096;51.338;12.524;2023-05-07T13:10:49;4.53;;;4.03;;
21862;SDS011;11096;51.338;12.524;2023-05-07T13:13:14;4.32;;;3.92;;
21862;SDS011;11096;51.338;12.524;2023-05-07T13:15:40;4.28;;;3.78;;
21862;SDS011;11096;51.338;12.524;2023-05-07T13:18:05;5.43;;;3.95;;
21862;SDS011;11096;51.338;12.524;2023-05-07T13:20:31;6.13;;;3.83;;
21862;SDS011;11096;51.338;12.524;2023-05-07T13:22:56;5.88;;;3.70;;
21862;SDS011;11096;51.338;12.524;2023-05-07T13:25:21;4.28;;;3.65;;
21862;SDS011;11096;51.338;12.524;2023-05-07T13:27:47;3.92;;;3.33;;
21862;SDS011;11096;51.338;12.524;2023-05-07T13:30:12;4.10;;;3.50;;
21862;SDS011;11096;51.338;12.524;2023-05-07T13:32:38;3.50;;;3.03;;
21862;SDS011;11096;51.338;12.524;2023-05-07T13:35:03;4.75;;;3.38;;
21862;SDS011;11096;51.338;12.524;2023-05-07T13:37:29;8.23;;;3.10;;
21862;SDS011;11096;51.338;12.524;2023-05-07T13:39:54;6.07;;;3.95;;
21862;SDS011;11096;51.338;12.524;2023-05-07T13:42:20;4.32;;;3.30;;
21862;SDS011;11096;51.338;12.524;2023-05-07T13:44:45;3.47;;;3.03;;
21862;SDS011;11096;51.338;12.524;2023-05-07T13:47:11;4.00;;;3.05;;
21862;SDS011;11096;51.338;12.524;2023-05-07T13:49:36;4.78;;;3.00;;
21862;SDS011;11096;51.338;12.524;2023-05-07T13:52:02;4.35;;;3.30;;
21862;SDS011;11096;51.338;12.524;2023-05-07T13:54:28;3.70;;;2.72;;
21862;SDS011;11096;51.338;12.524;2023-05-07T13:56:53;4.55;;;3.03;;
21862;SDS011;11096;51.338;12.524;2023-05-07T13:59:19;3.30;;;2.92;;
21862;SDS011;11096;51.338;12.524;2023-05-07T14:01:44;3.67;;;3.08;;
21862;SDS011;11096;51.338;12.524;2023-05-07T14:04:09;3.92;;;2.88;;
21862;SDS011;11096;51.338;12.524;2023-05-07T14:06:35;4.18;;;2.70;;
21862;SDS011;11096;51.338;12.524;2023-05-07T14:09:00;3.22;;;2.55;;
21862;SDS011;11096;51.338;12.524;2023-05-07T14:11:26;2.53;;;2.33;;
21862;SDS011;11096;51.338;12.524;2023-05-07T14:13:51;3.20;;;2.65;;
21862;SDS011;11096;51.338;12.524;2023-05-07T14:16:16;4.18;;;2.60;;
21862;SDS011;11096;51.338;12.524;2023-05-07T14:18:42;3.88;;;2.40;;
21862;SDS011;11096;51.338;12.524;2023-05-07T14:21:07;3.70;;;2.47;;
21862;SDS011;11096;51.338;12.524;2023-05-07T14:23:34;2.25;;;2.05;;
21862;SDS011;11096;51.338;12.524;2023-05-07T14:26:00;4.30;;;2.60;;
21862;SDS011;11096;51.338;12.524;2023-05-07T14:28:25;2.90;;;2.50;;
21862;SDS011;11096;51.338;12.524;2023-05-07T14:30:50;3.17;;;2.30;;
21862;SDS011;11096;51.338;12.524;2023-05-07T14:33:16;2.75;;;2.55;;